sensor_id;sensor_type;location;lat;lon;timestamp;temperature;humidity
25248;DHT22;13191;47.472;11.214;2024-03-02T00:02:07;7.20;99.90
25248;DHT22;13191;47.472;11.214;2024-03-02T00:04:34;7.20;99.90
25248;DHT22;13191;47.472;11.214;2024-03-02T00:06:59;7.20;99.90
25248;DHT22;13191;47.472;11.214;2024-03-02T00:09:25;7.20;99.90
25248;DHT22;13191;47.472;11.214;2024-03-02T00:11:50;7.20;99.90
25248;DHT22;13191;47.472;11.214;2024-03-02T00:14:16;7.30;99.90
25248;DHT22;13191;47.472;11.214;2024-03-02T00:16:42;7.30;99.90
25248;DHT22;13191;47.472;11.214;2024-03-02T00:19:08;7.20;99.90
25248;DHT22;13191;47.472;11.214;2024-03-02T00:21:35;7.20;99.90
25248;DHT22;13191;47.472;11.214;2024-03-02T00:24:02;7.30;99.90
25248;DHT22;13191;47.472;11.214;2024-03-02T00:26:31;7.20;99.90
25248;DHT22;13191;47.472;11.214;2024-03-02T00:28:57;7.30;99.90
25248;DHT22;13191;47.472;11.214;2024-03-02T00:31:23;7.30;99.90
25248;DHT22;13191;47.472;11.214;2024-03-02T00:33:49;7.20;99.90
25248;DHT22;13191;47.472;11.214;2024-03-02T00:36:16;7.20;99.90
25248;DHT22;13191;47.472;11.214;2024-03-02T00:38:52;7.30;99.90
25248;DHT22;13191;47.472;11.214;2024-03-02T00:41:31;7.30;99.90
25248;DHT22;13191;47.472;11.214;2024-03-02T00:44:07;7.30;99.90
25248;DHT22;13191;47.472;11.214;2024-03-02T00:51:37;7.30;99.90
25248;DHT22;13191;47.472;11.214;2024-03-02T00:54:05;7.30;99.90
25248;DHT22;13191;47.472;11.214;2024-03-02T00:56:32;7.30;99.90
25248;DHT22;13191;47.472;11.214;2024-03-02T00:58:58;7.30;99.90
25248;DHT22;13191;47.472;11.214;2024-03-02T01:01:24;7.30;99.90
25248;DHT22;13191;47.472;11.214;2024-03-02T01:03:49;7.30;99.90
25248;DHT22;13191;47.472;11.214;2024-03-02T01:06:16;7.30;99.90
25248;DHT22;13191;47.472;11.214;2024-03-02T01:08:42;7.30;99.90
25248;DHT22;13191;47.472;11.214;2024-03-02T01:11:08;7.20;99.90
25248;DHT22;13191;47.472;11.214;2024-03-02T01:13:34;7.10;99.90
25248;DHT22;13191;47.472;11.214;2024-03-02T01:16:00;7.00;99.90
25248;DHT22;13191;47.472;11.214;2024-03-02T01:18:26;7.10;99.90
25248;DHT22;13191;47.472;11.214;2024-03-02T01:20:52;7.10;99.90
25248;DHT22;13191;47.472;11.214;2024-03-02T01:23:19;7.10;99.90
25248;DHT22;13191;47.472;11.214;2024-03-02T01:25:46;7.10;99.90
25248;DHT22;13191;47.472;11.214;2024-03-02T01:28:12;7.10;99.90
25248;DHT22;13191;47.472;11.214;2024-03-02T01:30:38;7.20;99.90
25248;DHT22;13191;47.472;11.214;2024-03-02T01:33:04;7.20;99.90
25248;DHT22;13191;47.472;11.214;2024-03-02T01:35:31;7.20;99.90
25248;DHT22;13191;47.472;11.214;2024-03-02T01:37:56;7.10;99.90
25248;DHT22;13191;47.472;11.214;2024-03-02T01:40:22;7.20;99.90
25248;DHT22;13191;47.472;11.214;2024-03-02T01:42:51;7.10;99.90
25248;DHT22;13191;47.472;11.214;2024-03-02T01:45:18;7.10;99.90
25248;DHT22;13191;47.472;11.214;2024-03-02T01:47:43;7.10;99.90
25248;DHT22;13191;47.472;11.214;2024-03-02T01:50:11;7.10;99.90
25248;DHT22;13191;47.472;11.214;2024-03-02T01:52:37;7.10;99.90
25248;DHT22;13191;47.472;11.214;2024-03-02T01:55:03;7.10;99.90
25248;DHT22;13191;47.472;11.214;2024-03-02T01:57:29;7.10;99.90
25248;DHT22;13191;47.472;11.214;2024-03-02T01:59:55;7.10;99.90
25248;DHT22;13191;47.472;11.214;2024-03-02T02:02:21;7.10;99.90
25248;DHT22;13191;47.472;11.214;2024-03-02T02:04:47;7.10;99.90
25248;DHT22;13191;47.472;11.214;2024-03-02T02:07:12;7.10;99.90
25248;DHT22;13191;47.472;11.214;2024-03-02T02:09:41;7.10;99.90
25248;DHT22;13191;47.472;11.214;2024-03-02T02:12:06;7.10;99.90
25248;DHT22;13191;47.472;11.214;2024-03-02T02:14:33;7.10;99.90
25248;DHT22;13191;47.472;11.214;2024-03-02T02:16:59;7.10;99.90
25248;DHT22;13191;47.472;11.214;2024-03-02T02:19:24;7.10;99.90
25248;DHT22;13191;47.472;11.214;2024-03-02T02:21:50;7.10;99.90
25248;DHT22;13191;47.472;11.214;2024-03-02T02:24:15;7.10;99.90
25248;DHT22;13191;47.472;11.214;2024-03-02T02:26:41;7.10;99.90
25248;DHT22;13191;47.472;11.214;2024-03-02T02:29:06;7.10;99.90
25248;DHT22;13191;47.472;11.214;2024-03-02T02:31:41;7.20;99.90
25248;DHT22;13191;47.472;11.214;2024-03-02T02:34:07;7.10;99.90
25248;DHT22;13191;47.472;11.214;2024-03-02T02:36:33;7.10;99.90
25248;DHT22;13191;47.472;11.214;2024-03-02T02:39:02;7.10;99.90
25248;DHT22;13191;47.472;11.214;2024-03-02T02:41:32;7.00;99.90
25248;DHT22;13191;47.472;11.214;2024-03-02T02:43:57;7.00;99.90
25248;DHT22;13191;47.472;11.214;2024-03-02T02:46:23;7.00;99.90
25248;DHT22;13191;47.472;11.214;2024-03-02T02:48:49;7.10;99.90
25248;DHT22;13191;47.472;11.214;2024-03-02T02:51:16;7.10;99.90
25248;DHT22;13191;47.472;11.214;2024-03-02T02:53:42;7.00;99.90
25248;DHT22;13191;47.472;11.214;2024-03-02T02:56:08;7.00;99.90
25248;DHT22;13191;47.472;11.214;2024-03-02T02:58:33;7.00;99.90
25248;DHT22;13191;47.472;11.214;2024-03-02T03:00:59;7.00;99.90
25248;DHT22;13191;47.472;11.214;2024-03-02T03:03:24;7.00;99.90
25248;DHT22;13191;47.472;11.214;2024-03-02T03:05:50;7.00;99.90
25248;DHT22;13191;47.472;11.214;2024-03-02T03:08:15;7.00;99.90
25248;DHT22;13191;47.472;11.214;2024-03-02T03:10:42;7.00;99.90
25248;DHT22;13191;47.472;11.214;2024-03-02T03:13:08;7.00;99.90
25248;DHT22;13191;47.472;11.214;2024-03-02T03:15:36;7.00;99.90
25248;DHT22;13191;47.472;11.214;2024-03-02T03:18:03;7.00;99.90
25248;DHT22;13191;47.472;11.214;2024-03-02T03:20:29;6.90;99.90
25248;DHT22;13191;47.472;11.214;2024-03-02T03:22:56;7.00;99.90
25248;DHT22;13191;47.472;11.214;2024-03-02T03:25:21;6.90;99.90
25248;DHT22;13191;47.472;11.214;2024-03-02T03:27:47;7.00;99.90
25248;DHT22;13191;47.472;11.214;2024-03-02T03:30:13;7.00;99.90
25248;DHT22;13191;47.472;11.214;2024-03-02T03:32:38;7.00;99.90
25248;DHT22;13191;47.472;11.214;2024-03-02T03:35:04;7.00;99.90
25248;DHT22;13191;47.472;11.214;2024-03-02T03:37:30;7.00;99.90
25248;DHT22;13191;47.472;11.214;2024-03-02T03:39:59;7.00;99.90
25248;DHT22;13191;47.472;11.214;2024-03-02T03:42:24;7.10;99.90
25248;DHT22;13191;47.472;11.214;2024-03-02T03:44:50;7.10;99.90
25248;DHT22;13191;47.472;11.214;2024-03-02T03:47:15;6.80;99.90
25248;DHT22;13191;47.472;11.214;2024-03-02T03:49:41;6.90;99.90
25248;DHT22;13191;47.472;11.214;2024-03-02T03:52:06;7.00;99.90
25248;DHT22;13191;47.472;11.214;2024-03-02T03:54:32;7.00;99.90
25248;DHT22;13191;47.472;11.214;2024-03-02T03:56:57;7.10;99.90
25248;DHT22;13191;47.472;11.214;2024-03-02T03:59:23;7.10;99.90
25248;DHT22;13191;47.472;11.214;2024-03-02T04:01:49;7.10;99.90
25248;DHT22;13191;47.472;11.214;2024-03-02T04:04:14;7.20;99.90
25248;DHT22;13191;47.472;11.214;2024-03-02T04:06:40;7.20;99.90
25248;DHT22;13191;47.472;11.214;2024-03-02T04:09:06;7.20;99.90
25248;DHT22;13191;47.472;11.214;2024-03-02T04:11:31;7.30;99.90
25248;DHT22;13191;47.472;11.214;2024-03-02T04:13:57;7.30;99.90
25248;DHT22;13191;47.472;11.214;2024-03-02T04:16:22;7.30;99.90
25248;DHT22;13191;47.472;11.214;2024-03-02T04:18:48;7.30;99.90
25248;DHT22;13191;47.472;11.214;2024-03-02T04:21:13;7.30;99.90
25248;DHT22;13191;47.472;11.214;2024-03-02T04:23:39;7.40;99.90
25248;DHT22;13191;47.472;11.214;2024-03-02T04:26:04;7.40;99.90
25248;DHT22;13191;47.472;11.214;2024-03-02T04:28:30;7.40;99.90
25248;DHT22;13191;47.472;11.214;2024-03-02T04:30:55;7.40;99.90
25248;DHT22;13191;47.472;11.214;2024-03-02T04:33:21;7.40;99.90
25248;DHT22;13191;47.472;11.214;2024-03-02T04:35:47;7.50;99.90
25248;DHT22;13191;47.472;11.214;2024-03-02T04:38:12;7.40;99.90
25248;DHT22;13191;47.472;11.214;2024-03-02T04:40:38;7.40;99.90
25248;DHT22;13191;47.472;11.214;2024-03-02T04:43:03;7.50;99.90
25248;DHT22;13191;47.472;11.214;2024-03-02T04:45:29;7.50;99.90
25248;DHT22;13191;47.472;11.214;2024-03-02T04:47:55;7.50;99.90
25248;DHT22;13191;47.472;11.214;2024-03-02T04:50:20;7.50;99.90
25248;DHT22;13191;47.472;11.214;2024-03-02T04:52:46;7.50;99.90
25248;DHT22;13191;47.472;11.214;2024-03-02T04:55:11;7.50;99.90
25248;DHT22;13191;47.472;11.214;2024-03-02T04:57:43;7.50;99.90
25248;DHT22;13191;47.472;11.214;2024-03-02T05:00:09;7.50;99.90
25248;DHT22;13191;47.472;11.214;2024-03-02T05:02:35;7.50;99.90
25248;DHT22;13191;47.472;11.214;2024-03-02T05:05:00;7.50;99.90
25248;DHT22;13191;47.472;11.214;2024-03-02T05:07:26;7.50;99.90
25248;DHT22;13191;47.472;11.214;2024-03-02T05:09:52;7.50;99.90
25248;DHT22;13191;47.472;11.214;2024-03-02T05:12:17;7.50;99.90
25248;DHT22;13191;47.472;11.214;2024-03-02T05:14:49;7.50;99.90
25248;DHT22;13191;47.472;11.214;2024-03-02T05:17:15;7.50;99.90
25248;DHT22;13191;47.472;11.214;2024-03-02T05:19:40;7.50;99.90
25248;DHT22;13191;47.472;11.214;2024-03-02T05:22:06;7.50;99.90
25248;DHT22;13191;47.472;11.214;2024-03-02T05:24:31;7.50;99.90
25248;DHT22;13191;47.472;11.214;2024-03-02T05:26:57;7.50;99.90
25248;DHT22;13191;47.472;11.214;2024-03-02T05:29:22;7.50;99.90
25248;DHT22;13191;47.472;11.214;2024-03-02T05:31:48;7.50;99.90
25248;DHT22;13191;47.472;11.214;2024-03-02T05:34:14;7.50;99.90
25248;DHT22;13191;47.472;11.214;2024-03-02T05:36:39;7.50;99.90
25248;DHT22;13191;47.472;11.214;2024-03-02T05:39:05;7.40;99.90
25248;DHT22;13191;47.472;11.214;2024-03-02T05:41:35;7.40;99.90
25248;DHT22;13191;47.472;11.214;2024-03-02T05:44:01;7.30;99.90
25248;DHT22;13191;47.472;11.214;2024-03-02T05:46:27;7.40;99.90
25248;DHT22;13191;47.472;11.214;2024-03-02T05:48:52;7.40;99.90
25248;DHT22;13191;47.472;11.214;2024-03-02T05:51:18;7.40;99.90
25248;DHT22;13191;47.472;11.214;2024-03-02T05:53:43;7.40;99.90
25248;DHT22;13191;47.472;11.214;2024-03-02T05:56:09;7.40;99.90
25248;DHT22;13191;47.472;11.214;2024-03-02T05:58:34;7.30;99.90
25248;DHT22;13191;47.472;11.214;2024-03-02T06:01:19;7.30;99.90
25248;DHT22;13191;47.472;11.214;2024-03-02T06:03:44;7.30;99.90
25248;DHT22;13191;47.472;11.214;2024-03-02T06:06:10;7.20;99.90
25248;DHT22;13191;47.472;11.214;2024-03-02T06:08:36;7.20;99.90
25248;DHT22;13191;47.472;11.214;2024-03-02T06:11:01;7.20;99.90
25248;DHT22;13191;47.472;11.214;2024-03-02T06:13:27;7.20;99.90
25248;DHT22;13191;47.472;11.214;2024-03-02T06:15:52;7.10;99.90
25248;DHT22;13191;47.472;11.214;2024-03-02T06:18:18;7.10;99.90
25248;DHT22;13191;47.472;11.214;2024-03-02T06:20:44;7.10;99.90
25248;DHT22;13191;47.472;11.214;2024-03-02T06:23:10;7.10;99.90
25248;DHT22;13191;47.472;11.214;2024-03-02T06:25:35;7.10;99.90
25248;DHT22;13191;47.472;11.214;2024-03-02T06:28:01;7.10;99.90
25248;DHT22;13191;47.472;11.214;2024-03-02T06:30:26;7.10;99.90
25248;DHT22;13191;47.472;11.214;2024-03-02T06:32:52;7.10;99.90
25248;DHT22;13191;47.472;11.214;2024-03-02T06:35:17;7.20;99.90
25248;DHT22;13191;47.472;11.214;2024-03-02T06:37:43;7.10;99.90
25248;DHT22;13191;47.472;11.214;2024-03-02T06:40:09;7.10;99.90
25248;DHT22;13191;47.472;11.214;2024-03-02T06:42:35;7.10;99.90
25248;DHT22;13191;47.472;11.214;2024-03-02T06:45:01;6.80;99.90
25248;DHT22;13191;47.472;11.214;2024-03-02T06:47:27;6.90;99.90
25248;DHT22;13191;47.472;11.214;2024-03-02T06:49:53;6.90;99.90
25248;DHT22;13191;47.472;11.214;2024-03-02T06:52:19;7.00;99.90
25248;DHT22;13191;47.472;11.214;2024-03-02T06:54:45;7.00;99.90
25248;DHT22;13191;47.472;11.214;2024-03-02T06:57:11;7.00;99.90
25248;DHT22;13191;47.472;11.214;2024-03-02T06:59:37;7.00;99.90
25248;DHT22;13191;47.472;11.214;2024-03-02T07:02:03;7.00;99.90
25248;DHT22;13191;47.472;11.214;2024-03-02T07:04:28;7.00;99.90
25248;DHT22;13191;47.472;11.214;2024-03-02T07:06:54;6.70;99.90
25248;DHT22;13191;47.472;11.214;2024-03-02T07:09:20;6.80;99.90
25248;DHT22;13191;47.472;11.214;2024-03-02T07:11:48;6.90;99.90
25248;DHT22;13191;47.472;11.214;2024-03-02T07:14:14;6.80;99.90
25248;DHT22;13191;47.472;11.214;2024-03-02T07:16:40;6.90;99.90
25248;DHT22;13191;47.472;11.214;2024-03-02T07:19:06;6.90;99.90
25248;DHT22;13191;47.472;11.214;2024-03-02T07:21:32;6.90;99.90
25248;DHT22;13191;47.472;11.214;2024-03-02T07:23:58;6.90;99.90
25248;DHT22;13191;47.472;11.214;2024-03-02T07:26:24;6.90;99.90
25248;DHT22;13191;47.472;11.214;2024-03-02T07:28:50;7.00;99.90
25248;DHT22;13191;47.472;11.214;2024-03-02T07:31:16;7.00;99.90
25248;DHT22;13191;47.472;11.214;2024-03-02T07:33:44;7.00;99.90
25248;DHT22;13191;47.472;11.214;2024-03-02T07:36:10;7.00;99.90
25248;DHT22;13191;47.472;11.214;2024-03-02T07:38:36;7.10;99.90
25248;DHT22;13191;47.472;11.214;2024-03-02T07:41:01;7.00;99.90
25248;DHT22;13191;47.472;11.214;2024-03-02T07:43:28;7.00;99.90
25248;DHT22;13191;47.472;11.214;2024-03-02T07:45:53;7.00;99.90
25248;DHT22;13191;47.472;11.214;2024-03-02T07:48:19;7.10;99.90
25248;DHT22;13191;47.472;11.214;2024-03-02T07:50:44;7.10;99.90
25248;DHT22;13191;47.472;11.214;2024-03-02T07:53:10;7.20;99.90
25248;DHT22;13191;47.472;11.214;2024-03-02T07:55:35;7.20;99.90
25248;DHT22;13191;47.472;11.214;2024-03-02T07:58:01;7.30;99.90
25248;DHT22;13191;47.472;11.214;2024-03-02T08:00:27;7.20;99.90
25248;DHT22;13191;47.472;11.214;2024-03-02T08:02:54;7.30;99.90
25248;DHT22;13191;47.472;11.214;2024-03-02T08:05:19;7.30;99.90
25248;DHT22;13191;47.472;11.214;2024-03-02T08:07:46;7.40;99.90
25248;DHT22;13191;47.472;11.214;2024-03-02T08:10:12;7.40;99.90
25248;DHT22;13191;47.472;11.214;2024-03-02T08:12:38;7.50;99.90
25248;DHT22;13191;47.472;11.214;2024-03-02T08:15:04;7.60;99.90
25248;DHT22;13191;47.472;11.214;2024-03-02T08:17:30;7.70;99.90
25248;DHT22;13191;47.472;11.214;2024-03-02T08:19:56;7.60;99.90
25248;DHT22;13191;47.472;11.214;2024-03-02T08:22:23;7.60;99.90
25248;DHT22;13191;47.472;11.214;2024-03-02T08:24:50;7.70;99.90
25248;DHT22;13191;47.472;11.214;2024-03-02T08:27:16;7.70;99.90
25248;DHT22;13191;47.472;11.214;2024-03-02T08:29:42;7.70;99.90
25248;DHT22;13191;47.472;11.214;2024-03-02T08:32:07;7.80;99.90
25248;DHT22;13191;47.472;11.214;2024-03-02T08:34:33;7.80;99.90
25248;DHT22;13191;47.472;11.214;2024-03-02T08:37:01;7.90;99.90
25248;DHT22;13191;47.472;11.214;2024-03-02T08:39:27;8.00;99.90
25248;DHT22;13191;47.472;11.214;2024-03-02T08:41:52;8.00;99.90
25248;DHT22;13191;47.472;11.214;2024-03-02T08:44:18;8.00;99.90
25248;DHT22;13191;47.472;11.214;2024-03-02T08:46:44;8.10;99.90
25248;DHT22;13191;47.472;11.214;2024-03-02T08:49:10;8.20;99.90
25248;DHT22;13191;47.472;11.214;2024-03-02T08:51:36;8.10;99.90
25248;DHT22;13191;47.472;11.214;2024-03-02T08:54:01;8.10;99.90
25248;DHT22;13191;47.472;11.214;2024-03-02T08:56:27;8.10;99.90
25248;DHT22;13191;47.472;11.214;2024-03-02T08:58:53;8.20;99.90
25248;DHT22;13191;47.472;11.214;2024-03-02T09:01:18;8.20;99.90
25248;DHT22;13191;47.472;11.214;2024-03-02T09:03:47;8.30;99.90
25248;DHT22;13191;47.472;11.214;2024-03-02T09:06:14;8.30;99.90
25248;DHT22;13191;47.472;11.214;2024-03-02T09:08:42;8.40;99.90
25248;DHT22;13191;47.472;11.214;2024-03-02T09:11:08;8.40;99.90
25248;DHT22;13191;47.472;11.214;2024-03-02T09:13:35;8.40;99.90
25248;DHT22;13191;47.472;11.214;2024-03-02T09:16:01;8.50;99.90
25248;DHT22;13191;47.472;11.214;2024-03-02T09:18:26;8.50;99.90
25248;DHT22;13191;47.472;11.214;2024-03-02T09:20:52;8.50;99.90
25248;DHT22;13191;47.472;11.214;2024-03-02T09:23:18;8.50;99.90
25248;DHT22;13191;47.472;11.214;2024-03-02T09:25:43;8.50;99.90
25248;DHT22;13191;47.472;11.214;2024-03-02T09:28:10;8.60;99.90
25248;DHT22;13191;47.472;11.214;2024-03-02T09:30:37;8.50;99.90
25248;DHT22;13191;47.472;11.214;2024-03-02T09:33:03;8.60;99.90
25248;DHT22;13191;47.472;11.214;2024-03-02T09:35:29;8.60;99.90
25248;DHT22;13191;47.472;11.214;2024-03-02T09:37:55;8.70;99.90
25248;DHT22;13191;47.472;11.214;2024-03-02T09:40:22;8.70;99.90
25248;DHT22;13191;47.472;11.214;2024-03-02T09:42:47;8.70;99.90
25248;DHT22;13191;47.472;11.214;2024-03-02T09:45:23;8.70;99.90
25248;DHT22;13191;47.472;11.214;2024-03-02T09:47:49;8.80;99.90
25248;DHT22;13191;47.472;11.214;2024-03-02T09:50:15;8.80;99.90
25248;DHT22;13191;47.472;11.214;2024-03-02T09:52:42;8.80;99.90
25248;DHT22;13191;47.472;11.214;2024-03-02T09:55:09;8.90;99.90
25248;DHT22;13191;47.472;11.214;2024-03-02T09:57:35;8.90;99.90
25248;DHT22;13191;47.472;11.214;2024-03-02T10:00:00;9.00;99.90
25248;DHT22;13191;47.472;11.214;2024-03-02T10:02:26;9.20;99.90
25248;DHT22;13191;47.472;11.214;2024-03-02T10:04:52;9.10;99.90
25248;DHT22;13191;47.472;11.214;2024-03-02T10:07:18;9.10;99.90
25248;DHT22;13191;47.472;11.214;2024-03-02T10:09:48;9.10;99.90
25248;DHT22;13191;47.472;11.214;2024-03-02T10:12:15;9.20;99.90
25248;DHT22;13191;47.472;11.214;2024-03-02T10:14:42;9.20;99.90
25248;DHT22;13191;47.472;11.214;2024-03-02T10:17:09;9.20;99.90
25248;DHT22;13191;47.472;11.214;2024-03-02T10:19:36;9.30;99.90
25248;DHT22;13191;47.472;11.214;2024-03-02T10:22:04;9.30;99.90
25248;DHT22;13191;47.472;11.214;2024-03-02T10:24:42;9.30;99.90
25248;DHT22;13191;47.472;11.214;2024-03-02T10:27:15;9.40;99.90
25248;DHT22;13191;47.472;11.214;2024-03-02T10:29:41;9.50;99.90
25248;DHT22;13191;47.472;11.214;2024-03-02T10:32:10;9.50;99.90
25248;DHT22;13191;47.472;11.214;2024-03-02T10:34:38;9.60;99.90
25248;DHT22;13191;47.472;11.214;2024-03-02T10:37:05;9.60;99.90
25248;DHT22;13191;47.472;11.214;2024-03-02T10:39:32;9.70;99.90
25248;DHT22;13191;47.472;11.214;2024-03-02T10:42:02;9.70;99.90
25248;DHT22;13191;47.472;11.214;2024-03-02T10:44:30;9.90;99.90
25248;DHT22;13191;47.472;11.214;2024-03-02T10:46:56;9.90;99.90
25248;DHT22;13191;47.472;11.214;2024-03-02T10:49:23;10.00;99.90
25248;DHT22;13191;47.472;11.214;2024-03-02T10:51:49;10.20;99.90
25248;DHT22;13191;47.472;11.214;2024-03-02T10:54:15;10.20;99.90
25248;DHT22;13191;47.472;11.214;2024-03-02T10:56:42;10.30;99.90
25248;DHT22;13191;47.472;11.214;2024-03-02T10:59:28;10.30;99.90
25248;DHT22;13191;47.472;11.214;2024-03-02T11:01:58;10.50;99.90
25248;DHT22;13191;47.472;11.214;2024-03-02T11:04:25;10.60;99.90
25248;DHT22;13191;47.472;11.214;2024-03-02T11:06:52;10.70;99.90
25248;DHT22;13191;47.472;11.214;2024-03-02T11:09:22;10.80;99.90
25248;DHT22;13191;47.472;11.214;2024-03-02T11:11:56;10.80;99.90
25248;DHT22;13191;47.472;11.214;2024-03-02T11:14:27;11.00;99.90
25248;DHT22;13191;47.472;11.214;2024-03-02T11:16:55;11.10;99.90
25248;DHT22;13191;47.472;11.214;2024-03-02T11:19:20;11.10;99.90
25248;DHT22;13191;47.472;11.214;2024-03-02T11:21:47;11.20;99.90
25248;DHT22;13191;47.472;11.214;2024-03-02T11:26:52;11.30;99.90
25248;DHT22;13191;47.472;11.214;2024-03-02T11:29:53;11.40;99.90
25248;DHT22;13191;47.472;11.214;2024-03-02T11:32:22;11.50;99.90
25248;DHT22;13191;47.472;11.214;2024-03-02T11:34:51;11.50;99.90
25248;DHT22;13191;47.472;11.214;2024-03-02T11:37:20;11.50;99.90
25248;DHT22;13191;47.472;11.214;2024-03-02T11:39:47;11.50;99.90
25248;DHT22;13191;47.472;11.214;2024-03-02T11:42:14;11.60;99.90
25248;DHT22;13191;47.472;11.214;2024-03-02T11:44:45;11.70;99.90
25248;DHT22;13191;47.472;11.214;2024-03-02T11:47:12;11.70;99.90
25248;DHT22;13191;47.472;11.214;2024-03-02T11:49:46;11.80;99.90
25248;DHT22;13191;47.472;11.214;2024-03-02T11:52:14;11.80;99.90
25248;DHT22;13191;47.472;11.214;2024-03-02T11:54:42;11.90;99.90
25248;DHT22;13191;47.472;11.214;2024-03-02T11:57:18;12.00;99.90
25248;DHT22;13191;47.472;11.214;2024-03-02T11:59:45;12.00;99.90
25248;DHT22;13191;47.472;11.214;2024-03-02T12:02:18;12.00;99.90
25248;DHT22;13191;47.472;11.214;2024-03-02T12:04:45;12.00;99.90
25248;DHT22;13191;47.472;11.214;2024-03-02T12:07:11;12.00;99.90
25248;DHT22;13191;47.472;11.214;2024-03-02T12:09:38;12.00;99.90
25248;DHT22;13191;47.472;11.214;2024-03-02T12:12:08;12.10;99.90
25248;DHT22;13191;47.472;11.214;2024-03-02T12:14:36;12.20;99.90
25248;DHT22;13191;47.472;11.214;2024-03-02T12:17:03;12.20;99.90
25248;DHT22;13191;47.472;11.214;2024-03-02T12:19:29;12.30;99.90
25248;DHT22;13191;47.472;11.214;2024-03-02T12:21:59;12.30;99.90
25248;DHT22;13191;47.472;11.214;2024-03-02T12:24:28;12.40;99.90
25248;DHT22;13191;47.472;11.214;2024-03-02T12:26:54;12.50;99.90
25248;DHT22;13191;47.472;11.214;2024-03-02T12:29:20;12.50;99.90
25248;DHT22;13191;47.472;11.214;2024-03-02T12:31:52;12.60;99.90
25248;DHT22;13191;47.472;11.214;2024-03-02T12:34:18;12.60;99.90
25248;DHT22;13191;47.472;11.214;2024-03-02T12:36:46;12.70;99.90
25248;DHT22;13191;47.472;11.214;2024-03-02T12:39:18;12.80;99.90
25248;DHT22;13191;47.472;11.214;2024-03-02T12:41:44;12.90;99.90
25248;DHT22;13191;47.472;11.214;2024-03-02T12:44:10;12.90;99.90
25248;DHT22;13191;47.472;11.214;2024-03-02T12:46:35;13.00;99.90
25248;DHT22;13191;47.472;11.214;2024-03-02T12:49:09;13.00;99.90
25248;DHT22;13191;47.472;11.214;2024-03-02T12:51:39;13.10;99.90
25248;DHT22;13191;47.472;11.214;2024-03-02T12:54:07;13.20;99.90
25248;DHT22;13191;47.472;11.214;2024-03-02T12:56:33;13.20;99.90
25248;DHT22;13191;47.472;11.214;2024-03-02T12:58:59;13.30;99.90
25248;DHT22;13191;47.472;11.214;2024-03-02T13:01:25;13.40;99.90
25248;DHT22;13191;47.472;11.214;2024-03-02T13:03:55;13.50;99.90
25248;DHT22;13191;47.472;11.214;2024-03-02T13:06:25;13.50;99.90
25248;DHT22;13191;47.472;11.214;2024-03-02T13:08:54;13.30;99.90
25248;DHT22;13191;47.472;11.214;2024-03-02T13:11:22;13.40;99.90
25248;DHT22;13191;47.472;11.214;2024-03-02T13:13:48;13.40;99.90
25248;DHT22;13191;47.472;11.214;2024-03-02T13:16:15;13.40;99.90
25248;DHT22;13191;47.472;11.214;2024-03-02T13:18:42;13.50;99.90
25248;DHT22;13191;47.472;11.214;2024-03-02T13:21:08;13.60;99.90
25248;DHT22;13191;47.472;11.214;2024-03-02T13:23:34;13.70;99.90
25248;DHT22;13191;47.472;11.214;2024-03-02T13:26:00;13.80;99.90
25248;DHT22;13191;47.472;11.214;2024-03-02T13:28:25;13.90;99.90
25248;DHT22;13191;47.472;11.214;2024-03-02T13:30:51;14.00;99.90
25248;DHT22;13191;47.472;11.214;2024-03-02T13:33:17;14.10;99.90
25248;DHT22;13191;47.472;11.214;2024-03-02T13:35:51;14.20;99.90
25248;DHT22;13191;47.472;11.214;2024-03-02T13:38:18;14.10;99.90
25248;DHT22;13191;47.472;11.214;2024-03-02T13:40:44;14.20;99.90
25248;DHT22;13191;47.472;11.214;2024-03-02T13:43:10;14.30;99.90
25248;DHT22;13191;47.472;11.214;2024-03-02T13:45:36;14.40;99.90
25248;DHT22;13191;47.472;11.214;2024-03-02T13:48:02;14.50;99.90
25248;DHT22;13191;47.472;11.214;2024-03-02T13:50:28;14.50;99.90
25248;DHT22;13191;47.472;11.214;2024-03-02T13:52:55;14.60;99.90
25248;DHT22;13191;47.472;11.214;2024-03-02T13:55:21;14.70;99.90
25248;DHT22;13191;47.472;11.214;2024-03-02T13:57:47;14.80;99.90
25248;DHT22;13191;47.472;11.214;2024-03-02T14:00:14;15.10;99.90
25248;DHT22;13191;47.472;11.214;2024-03-02T14:02:40;15.20;99.90
25248;DHT22;13191;47.472;11.214;2024-03-02T14:05:06;15.30;99.90
25248;DHT22;13191;47.472;11.214;2024-03-02T14:07:37;15.40;99.90
25248;DHT22;13191;47.472;11.214;2024-03-02T14:10:03;15.50;99.90
25248;DHT22;13191;47.472;11.214;2024-03-02T14:12:29;15.60;99.90
25248;DHT22;13191;47.472;11.214;2024-03-02T14:14:54;15.60;99.90
25248;DHT22;13191;47.472;11.214;2024-03-02T14:17:26;15.70;99.90
25248;DHT22;13191;47.472;11.214;2024-03-02T14:19:51;15.90;99.90
25248;DHT22;13191;47.472;11.214;2024-03-02T14:22:19;16.10;99.90
25248;DHT22;13191;47.472;11.214;2024-03-02T14:24:45;16.50;99.90
25248;DHT22;13191;47.472;11.214;2024-03-02T14:27:11;16.70;99.90
25248;DHT22;13191;47.472;11.214;2024-03-02T14:29:37;17.00;99.90
25248;DHT22;13191;47.472;11.214;2024-03-02T14:32:05;17.40;99.90
25248;DHT22;13191;47.472;11.214;2024-03-02T14:34:30;17.70;99.90
25248;DHT22;13191;47.472;11.214;2024-03-02T14:36:56;18.10;99.90
25248;DHT22;13191;47.472;11.214;2024-03-02T14:39:22;18.40;99.90
25248;DHT22;13191;47.472;11.214;2024-03-02T14:41:48;18.70;99.90
25248;DHT22;13191;47.472;11.214;2024-03-02T14:44:14;18.80;99.90
25248;DHT22;13191;47.472;11.214;2024-03-02T14:46:40;19.10;99.90
25248;DHT22;13191;47.472;11.214;2024-03-02T14:49:06;19.20;99.90
25248;DHT22;13191;47.472;11.214;2024-03-02T14:51:31;19.30;99.90
25248;DHT22;13191;47.472;11.214;2024-03-02T14:53:57;19.30;99.90
25248;DHT22;13191;47.472;11.214;2024-03-02T14:56:23;19.40;99.90
25248;DHT22;13191;47.472;11.214;2024-03-02T14:58:49;19.40;99.90
25248;DHT22;13191;47.472;11.214;2024-03-02T15:01:16;19.20;99.90
25248;DHT22;13191;47.472;11.214;2024-03-02T15:03:42;18.90;99.50
25248;DHT22;13191;47.472;11.214;2024-03-02T15:06:08;19.10;99.90
25248;DHT22;13191;47.472;11.214;2024-03-02T15:08:33;19.00;99.10
25248;DHT22;13191;47.472;11.214;2024-03-02T15:10:59;18.80;98.50
25248;DHT22;13191;47.472;11.214;2024-03-02T15:13:26;18.60;99.90
25248;DHT22;13191;47.472;11.214;2024-03-02T15:15:51;18.70;99.90
25248;DHT22;13191;47.472;11.214;2024-03-02T15:18:18;18.50;99.90
25248;DHT22;13191;47.472;11.214;2024-03-02T15:20:43;18.40;99.90
25248;DHT22;13191;47.472;11.214;2024-03-02T15:23:09;18.10;99.90
25248;DHT22;13191;47.472;11.214;2024-03-02T15:25:34;18.10;99.90
25248;DHT22;13191;47.472;11.214;2024-03-02T15:28:00;18.00;99.90
25248;DHT22;13191;47.472;11.214;2024-03-02T15:30:25;17.90;99.90
25248;DHT22;13191;47.472;11.214;2024-03-02T15:32:51;17.80;99.90